createdAt,value
2022-10-17T00:00:45.616Z,25.83
2022-10-17T00:04:03.348Z,27.80
2022-10-17T00:07:26.673Z,26.77
2022-10-17T00:10:37.294Z,24.13
2022-10-17T00:14:02.240Z,24.43
2022-10-17T00:17:33.458Z,25.63
2022-10-17T00:20:43.296Z,26.67
2022-10-17T00:24:07.223Z,27.35
2022-10-17T00:27:38.439Z,24.87
2022-10-17T00:31:04.605Z,28.50
2022-10-17T00:34:17.472Z,26.42
2022-10-17T00:37:34.244Z,25.80
2022-10-17T00:40:58.372Z,27.63
2022-10-17T00:44:33.533Z,24.67
2022-10-17T00:47:37.632Z,24.43
2022-10-17T00:50:44.456Z,24.67
2022-10-17T00:53:52.054Z,23.70
2022-10-17T00:57:13.117Z,26.95
2022-10-17T01:00:36.159Z,24.27
2022-10-17T01:03:46.831Z,23.83
2022-10-17T01:06:55.820Z,27.30
2022-10-17T01:10:14.135Z,26.27
2022-10-17T01:14:05.425Z,22.15
2022-10-17T01:17:56.700Z,22.97
2022-10-17T01:21:06.471Z,24.77
2022-10-17T01:24:21.526Z,24.83
2022-10-17T01:27:35.704Z,22.17
2022-10-17T01:31:24.224Z,21.90
2022-10-17T01:34:55.244Z,26.23
2022-10-17T01:38:22.192Z,23.37
2022-10-17T01:41:52.888Z,23.85
2022-10-17T01:45:13.808Z,23.80
2022-10-17T01:48:42.099Z,23.30
2022-10-17T01:52:12.934Z,25.17
2022-10-17T01:55:55.135Z,27.27
2022-10-17T01:59:30.076Z,25.40
2022-10-17T02:02:42.924Z,21.45
2022-10-17T02:05:52.932Z,25.52
2022-10-17T02:09:32.012Z,25.93
2022-10-17T02:13:02.948Z,25.40
2022-10-17T02:16:24.476Z,23.98
2022-10-17T02:19:52.168Z,25.60
2022-10-17T02:23:35.198Z,23.92
2022-10-17T02:26:46.302Z,22.27
2022-10-17T02:30:13.812Z,22.77
2022-10-17T02:33:45.013Z,21.95
2022-10-17T02:37:05.293Z,24.27
2022-10-17T02:40:24.260Z,23.77
2022-10-17T02:43:31.583Z,22.30
2022-10-17T02:46:41.199Z,22.40
2022-10-17T02:50:00.202Z,24.85
2022-10-17T02:53:10.010Z,27.48
2022-10-17T02:56:19.640Z,24.98
2022-10-17T02:59:32.095Z,25.53
2022-10-17T03:02:51.713Z,24.07
2022-10-17T03:06:05.822Z,22.65
2022-10-17T03:09:23.062Z,22.48
2022-10-17T03:12:26.957Z,23.60
2022-10-17T03:15:37.298Z,22.47
2022-10-17T03:18:50.098Z,25.53
2022-10-17T03:21:57.518Z,22.20
2022-10-17T03:25:00.803Z,23.02
2022-10-17T03:28:10.013Z,27.17
2022-10-17T03:31:18.564Z,22.97
2022-10-17T03:34:42.837Z,28.87
2022-10-17T03:37:57.605Z,23.70
2022-10-17T03:41:22.708Z,21.88
2022-10-17T03:44:50.716Z,23.30
2022-10-17T03:48:11.750Z,27.23
2022-10-17T03:51:30.908Z,24.07
2022-10-17T03:54:51.914Z,23.00
2022-10-17T03:58:20.074Z,22.02
2022-10-17T04:01:37.726Z,24.45
2022-10-17T04:05:00.972Z,22.03
2022-10-17T04:08:21.665Z,24.10
2022-10-17T04:11:52.567Z,26.65
2022-10-17T04:15:09.035Z,26.75
2022-10-17T04:18:31.766Z,24.77
2022-10-17T04:21:53.738Z,23.73
2022-10-17T04:25:15.882Z,27.57
2022-10-17T04:32:00.785Z,25.80
2022-10-17T04:35:09.836Z,23.63
2022-10-17T04:38:33.782Z,25.30
2022-10-17T04:42:00.764Z,23.90
2022-10-17T04:45:20.824Z,25.88
2022-10-17T04:48:51.103Z,22.25
2022-10-17T04:52:11.749Z,24.35
2022-10-17T04:55:35.899Z,24.10
2022-10-17T04:58:57.731Z,21.07
2022-10-17T05:02:18.909Z,22.17
2022-10-17T05:05:29.883Z,24.00
2022-10-17T05:08:53.724Z,23.85
2022-10-17T05:12:04.346Z,22.40
2022-10-17T05:15:19.591Z,24.67
2022-10-17T05:18:24.294Z,26.17
2022-10-17T05:21:40.837Z,27.73
2022-10-17T05:24:51.373Z,38.65
2022-10-17T05:27:57.296Z,33.77
2022-10-17T05:31:21.164Z,29.67
2022-10-17T05:34:25.434Z,25.65
2022-10-17T05:37:49.172Z,32.53
2022-10-17T05:41:02.044Z,26.50
2022-10-17T05:44:27.469Z,35.87
2022-10-17T05:53:46.349Z,26.15
2022-10-17T05:57:04.083Z,26.00
2022-10-17T06:04:00.671Z,33.60
2022-10-17T06:07:58.291Z,32.20
2022-10-17T06:11:29.127Z,30.20
2022-10-17T06:14:40.945Z,28.40
2022-10-17T06:17:53.123Z,30.15
2022-10-17T06:21:05.267Z,35.60
2022-10-17T06:24:13.276Z,36.73
2022-10-17T06:27:20.638Z,30.85
2022-10-17T06:30:25.498Z,32.47
2022-10-17T06:33:44.854Z,23.70
2022-10-17T06:37:35.323Z,26.20
2022-10-17T06:45:40.641Z,24.75
2022-10-17T06:49:35.803Z,25.42
2022-10-17T06:53:20.312Z,24.10
2022-10-17T06:57:10.364Z,27.23
2022-10-17T07:00:59.916Z,30.50
2022-10-17T07:04:21.111Z,26.58
2022-10-17T07:07:45.625Z,26.75
2022-10-17T07:11:39.554Z,23.45
2022-10-17T07:14:51.877Z,25.77
2022-10-17T07:18:37.966Z,25.73
2022-10-17T07:21:43.888Z,25.63
2022-10-17T07:25:06.168Z,33.55
2022-10-17T07:28:32.284Z,29.35
2022-10-17T07:31:50.050Z,27.83
2022-10-17T07:34:55.525Z,27.70
2022-10-17T07:38:18.231Z,24.90
2022-10-17T07:42:08.516Z,28.50
2022-10-17T07:58:12.676Z,25.70
2022-10-17T08:01:38.563Z,24.63
2022-10-17T08:04:46.859Z,23.65
2022-10-17T08:08:40.746Z,25.63
2022-10-17T08:12:14.950Z,22.40
2022-10-17T08:20:16.132Z,24.83
2022-10-17T08:24:23.196Z,21.42
2022-10-17T08:27:59.007Z,23.63
2022-10-17T08:32:01.134Z,25.07
2022-10-17T08:41:15.599Z,31.67
2022-10-17T08:45:04.040Z,21.60
2022-10-17T08:53:04.616Z,21.60
2022-10-17T09:02:11.423Z,24.67
2022-10-17T09:06:05.985Z,20.75
2022-10-17T09:09:28.684Z,23.23
2022-10-17T09:13:43.311Z,24.30
2022-10-17T09:17:44.809Z,25.20
2022-10-17T09:22:12.555Z,22.90
2022-10-17T09:25:30.676Z,21.42
2022-10-17T09:29:01.842Z,23.38
2022-10-17T09:37:54.556Z,21.07
2022-10-17T09:42:18.105Z,22.92
2022-10-17T09:50:01.055Z,24.83
2022-10-17T10:00:02.544Z,24.93
2022-10-17T10:03:56.422Z,23.60
2022-10-17T10:07:44.719Z,22.85
2022-10-17T10:16:56.832Z,17.00
2022-10-17T10:20:38.070Z,20.60
2022-10-17T10:24:14.561Z,18.98
2022-10-17T10:27:22.364Z,21.73
2022-10-17T10:30:34.870Z,14.50
2022-10-17T10:33:50.898Z,12.63
2022-10-17T10:37:41.567Z,13.70
2022-10-17T10:41:13.069Z,9.57
2022-10-17T10:44:39.780Z,12.43
2022-10-17T10:48:14.792Z,8.85
2022-10-17T10:57:25.141Z,11.20
2022-10-17T11:07:26.377Z,23.33
2022-10-17T11:10:45.544Z,13.15
2022-10-17T11:29:12.100Z,14.52
2022-10-17T11:33:13.481Z,8.68
2022-10-17T11:42:29.167Z,10.37
2022-10-17T12:14:17.302Z,13.25
2022-10-17T12:17:44.073Z,8.98
2022-10-17T12:21:01.029Z,8.60
2022-10-17T12:24:52.472Z,8.50
2022-10-17T12:28:59.857Z,8.53
2022-10-17T12:32:13.643Z,9.95
2022-10-17T12:35:59.929Z,14.45
2022-10-17T12:39:20.631Z,6.45
2022-10-17T12:42:46.864Z,10.83
2022-10-17T12:46:01.873Z,8.10
2022-10-17T12:49:56.682Z,9.18
2022-10-17T12:53:25.577Z,11.90
2022-10-17T12:56:53.503Z,13.50
2022-10-17T13:00:26.372Z,8.63
2022-10-17T13:04:46.246Z,9.33
2022-10-17T13:08:26.153Z,16.27
2022-10-17T13:17:05.563Z,7.85
2022-10-17T13:20:33.658Z,7.70
2022-10-17T13:23:38.365Z,11.80
2022-10-17T13:26:48.268Z,16.75
2022-10-17T13:29:57.270Z,9.15
2022-10-17T13:38:42.659Z,8.00
2022-10-17T13:41:59.835Z,6.80
2022-10-17T13:46:19.259Z,6.70
2022-10-17T13:49:41.117Z,5.40
2022-10-17T13:52:44.335Z,9.70
2022-10-17T13:56:27.856Z,7.63
2022-10-17T13:59:50.430Z,6.43
2022-10-17T14:03:03.971Z,11.50
2022-10-17T14:06:23.247Z,13.35
2022-10-17T14:09:43.816Z,9.25
2022-10-17T14:13:00.244Z,10.30
2022-10-17T14:16:11.243Z,9.93
2022-10-17T14:19:33.420Z,9.98
2022-10-17T14:22:40.963Z,7.15
2022-10-17T14:26:15.938Z,7.22
2022-10-17T14:29:27.742Z,5.80
2022-10-17T14:32:37.755Z,14.63
2022-10-17T14:35:55.182Z,13.23
2022-10-17T14:39:15.833Z,8.35
2022-10-17T14:42:24.880Z,8.18
2022-10-17T14:45:50.121Z,6.77
2022-10-17T14:49:27.162Z,8.07
2022-10-17T14:52:39.077Z,9.90
2022-10-17T14:56:09.110Z,10.32
2022-10-17T14:59:51.439Z,9.15
2022-10-17T15:02:46.980Z,7.67
2022-10-17T15:06:04.983Z,8.40
2022-10-17T15:09:28.922Z,8.85
2022-10-17T15:12:57.495Z,12.40
2022-10-17T15:16:47.879Z,9.18
2022-10-17T15:19:51.962Z,9.20
2022-10-17T15:22:59.586Z,7.37
2022-10-17T15:26:22.066Z,6.45
2022-10-17T15:29:30.550Z,7.53
2022-10-17T15:32:51.963Z,11.35
2022-10-17T15:36:15.067Z,13.50
2022-10-17T15:39:37.041Z,10.83
2022-10-17T15:43:00.058Z,10.40
2022-10-17T15:46:22.042Z,8.27
2022-10-17T15:49:43.035Z,8.25
2022-10-17T15:53:04.012Z,10.67
2022-10-17T15:56:31.563Z,8.07
2022-10-17T15:59:48.061Z,7.72
2022-10-17T16:03:09.083Z,11.80
2022-10-17T16:06:26.023Z,14.68
2022-10-17T16:09:41.192Z,14.53
2022-10-17T16:13:03.998Z,10.90
2022-10-17T16:16:28.954Z,11.05
2022-10-17T16:19:58.340Z,10.93
2022-10-17T16:23:15.141Z,11.02
2022-10-17T16:26:18.859Z,12.40
2022-10-17T16:29:25.872Z,10.77
2022-10-17T16:32:33.580Z,13.32
2022-10-17T16:35:42.587Z,16.15
2022-10-17T16:38:46.294Z,12.02
2022-10-17T16:41:54.848Z,14.33
2022-10-17T16:45:04.572Z,12.97
2022-10-17T16:48:18.156Z,12.98
2022-10-17T16:51:39.824Z,14.30
2022-10-17T16:54:43.016Z,18.50
2022-10-17T16:57:49.292Z,12.80
2022-10-17T17:01:05.658Z,14.23
2022-10-17T17:04:28.803Z,12.40
2022-10-17T17:07:53.637Z,14.38
2022-10-17T17:11:17.615Z,19.88
2022-10-17T17:14:39.607Z,11.67
2022-10-17T17:17:55.967Z,12.43
2022-10-17T17:21:16.871Z,16.50
2022-10-17T17:24:31.613Z,19.10
2022-10-17T17:27:34.397Z,26.02
2022-10-17T17:30:45.142Z,29.13
2022-10-17T17:34:01.716Z,36.00
2022-10-17T17:37:08.131Z,33.10
2022-10-17T17:40:15.223Z,36.60
2022-10-17T17:43:22.290Z,24.83
2022-10-17T17:46:42.607Z,24.63
2022-10-17T17:50:03.547Z,24.60
2022-10-17T17:53:15.553Z,22.67
2022-10-17T17:56:40.695Z,15.13
2022-10-17T18:00:10.684Z,17.27
2022-10-17T18:03:26.875Z,14.80
2022-10-17T18:06:49.657Z,14.83
2022-10-17T18:13:39.617Z,16.90
2022-10-17T18:17:03.645Z,20.77
2022-10-17T18:20:27.626Z,17.67
2022-10-17T18:23:48.842Z,15.93
2022-10-17T18:26:54.047Z,19.25
2022-10-17T18:29:56.878Z,21.52
2022-10-17T18:33:11.235Z,27.17
2022-10-17T18:36:31.114Z,26.77
2022-10-17T18:39:40.612Z,24.67
2022-10-17T18:42:57.782Z,21.20
2022-10-17T18:46:32.631Z,25.55
2022-10-17T18:49:55.550Z,27.02
2022-10-17T18:53:21.220Z,23.90
2022-10-17T18:56:38.605Z,22.63
2022-10-17T19:00:03.172Z,24.17
2022-10-17T19:03:27.651Z,18.17
2022-10-17T19:06:50.228Z,20.55
2022-10-17T19:10:10.282Z,20.70
2022-10-17T19:13:34.551Z,23.67
2022-10-17T19:16:59.192Z,26.15
2022-10-17T19:20:21.154Z,25.98
2022-10-17T19:23:42.246Z,25.48
2022-10-17T19:26:47.032Z,22.73
2022-10-17T19:29:55.941Z,21.33
2022-10-17T19:33:05.828Z,22.80
2022-10-17T19:36:32.259Z,20.10
2022-10-17T19:39:45.212Z,23.27
2022-10-17T19:42:52.169Z,25.00
2022-10-17T19:46:04.272Z,20.83
2022-10-17T19:49:07.830Z,21.30
2022-10-17T19:52:10.560Z,22.30
2022-10-17T19:55:33.489Z,27.50
2022-10-17T19:59:04.549Z,23.30
2022-10-17T20:02:24.530Z,25.03
2022-10-17T20:05:45.419Z,24.50
2022-10-17T20:09:13.926Z,21.17
2022-10-17T20:12:35.379Z,25.85
2022-10-17T20:15:57.534Z,23.20
2022-10-17T20:19:17.334Z,25.13
2022-10-17T20:22:40.411Z,28.45
2022-10-17T20:26:08.734Z,24.02
2022-10-17T20:29:28.128Z,27.38
2022-10-17T20:32:49.690Z,24.90
2022-10-17T20:35:57.681Z,26.43
2022-10-17T20:39:07.303Z,27.00
2022-10-17T20:42:14.508Z,23.17
2022-10-17T20:45:43.833Z,37.80
2022-10-17T20:49:31.310Z,24.00
2022-10-17T20:53:24.450Z,25.33
2022-10-17T20:56:27.475Z,24.40
2022-10-17T20:59:46.346Z,23.33
2022-10-17T21:03:06.387Z,31.23
2022-10-17T21:06:27.276Z,22.87
2022-10-17T21:09:47.341Z,25.40
2022-10-17T21:13:07.317Z,28.02
2022-10-17T21:16:29.386Z,23.88
2022-10-17T21:19:49.175Z,29.83
2022-10-17T21:22:52.462Z,25.67
2022-10-17T21:26:00.096Z,27.27
2022-10-17T21:29:11.822Z,31.70
2022-10-17T21:32:39.404Z,30.42
2022-10-17T21:36:05.880Z,31.52
2022-10-17T21:39:15.853Z,28.77
2022-10-17T21:42:39.198Z,30.67
2022-10-17T21:46:12.111Z,27.25
2022-10-17T21:49:30.523Z,30.17
2022-10-17T21:52:46.103Z,31.83
2022-10-17T21:56:08.136Z,31.33
2022-10-17T21:59:17.712Z,26.17
2022-10-17T22:02:21.075Z,27.70
2022-10-17T22:05:37.387Z,27.02
2022-10-17T22:08:43.519Z,26.35
2022-10-17T22:12:00.091Z,23.10
2022-10-17T22:15:03.992Z,28.13
2022-10-17T22:18:18.075Z,28.33
2022-10-17T22:21:34.948Z,32.20
2022-10-17T22:24:58.029Z,25.95
2022-10-17T22:28:21.044Z,29.47
2022-10-17T22:31:43.936Z,29.70
2022-10-17T22:35:07.209Z,28.98
2022-10-17T22:38:26.986Z,31.05
2022-10-17T22:41:43.224Z,31.95
2022-10-17T22:45:04.135Z,27.57
2022-10-17T22:48:37.981Z,31.57
2022-10-17T22:51:58.961Z,29.95
2022-10-17T22:55:20.961Z,27.95
2022-10-17T22:58:44.030Z,27.15
2022-10-17T23:02:04.015Z,28.63
2022-10-17T23:05:26.976Z,30.80
2022-10-17T23:08:49.020Z,27.15
2022-10-17T23:12:11.964Z,29.73
2022-10-17T23:15:36.971Z,27.17
2022-10-17T23:18:58.035Z,28.03
2022-10-17T23:22:12.125Z,30.80
2022-10-17T23:25:34.930Z,27.45
2022-10-17T23:29:00.326Z,29.38
2022-10-17T23:32:21.046Z,28.67
2022-10-17T23:35:44.111Z,28.10
2022-10-17T23:39:01.295Z,28.83
2022-10-17T23:42:04.282Z,29.33
2022-10-17T23:45:09.678Z,32.47
2022-10-17T23:48:30.681Z,29.83
2022-10-17T23:51:51.721Z,27.77
2022-10-17T23:55:14.910Z,28.87
2022-10-17T23:58:40.688Z,29.00
